createdAt,value
2018-07-08T00:00:23.314Z,19.51
2018-07-08T00:01:03.888Z,19.59
2018-07-08T00:01:44.455Z,19.49
2018-07-08T00:02:25.052Z,19.48
2018-07-08T00:03:05.620Z,19.62
2018-07-08T00:03:46.201Z,19.51
2018-07-08T00:04:26.768Z,19.54
2018-07-08T00:05:07.327Z,19.49
2018-07-08T00:05:47.879Z,19.54
2018-07-08T00:06:28.456Z,19.45
2018-07-08T00:07:09.019Z,19.52
2018-07-08T00:07:49.605Z,19.51
2018-07-08T00:08:30.189Z,19.47
2018-07-08T00:09:10.748Z,19.47
2018-07-08T00:09:51.296Z,19.48
2018-07-08T00:10:31.860Z,19.47
2018-07-08T00:11:12.429Z,19.34
2018-07-08T00:11:52.998Z,19.44
2018-07-08T00:12:33.570Z,19.4
2018-07-08T00:13:14.172Z,19.39
2018-07-08T00:13:54.748Z,19.33
2018-07-08T00:14:35.309Z,19.26
2018-07-08T00:15:15.876Z,19.4
2018-07-08T00:15:56.436Z,19.26
2018-07-08T00:16:37.009Z,19.31
2018-07-08T00:17:17.575Z,19.26
2018-07-08T00:17:58.147Z,19.29
2018-07-08T00:18:38.715Z,19.22
2018-07-08T00:19:19.289Z,19.18
2018-07-08T00:19:59.864Z,19.19
2018-07-08T00:20:40.426Z,19.16
2018-07-08T00:21:21.005Z,19.22
2018-07-08T00:22:01.575Z,19.18
2018-07-08T00:22:42.143Z,19.19
2018-07-08T00:23:22.704Z,19.26
2018-07-08T00:24:03.256Z,19.18
2018-07-08T00:24:43.831Z,19.26
2018-07-08T00:25:24.412Z,19.18
2018-07-08T00:26:04.981Z,19.15
2018-07-08T00:26:45.535Z,19.14
2018-07-08T00:27:26.105Z,19.18
2018-07-08T00:28:06.671Z,19.14
2018-07-08T00:28:47.240Z,19.15
2018-07-08T00:29:27.799Z,19.18
2018-07-08T00:30:08.344Z,19.14
2018-07-08T00:30:48.912Z,19.14
2018-07-08T00:31:29.460Z,19.11
2018-07-08T00:32:10.020Z,19.12
2018-07-08T00:32:50.617Z,19.16
2018-07-08T00:33:31.157Z,19.04
2018-07-08T00:34:11.742Z,19.15
2018-07-08T00:34:52.299Z,19.15
2018-07-08T00:35:32.872Z,19.16
2018-07-08T00:36:13.428Z,19.19
2018-07-08T00:36:54.006Z,19.09
2018-07-08T00:37:34.579Z,19.02
2018-07-08T00:38:15.136Z,19.15
2018-07-08T00:38:55.684Z,19.14
2018-07-08T00:39:36.262Z,19.11
2018-07-08T00:40:16.854Z,19.08
2018-07-08T00:40:57.416Z,19.02
2018-07-08T00:41:37.978Z,19.11
2018-07-08T00:42:18.537Z,19.08
2018-07-08T00:42:59.091Z,19.12
2018-07-08T00:43:39.659Z,19.04
2018-07-08T00:44:20.218Z,19
2018-07-08T00:45:00.802Z,19.02
2018-07-08T00:45:41.370Z,18.99
2018-07-08T00:46:21.937Z,19.02
2018-07-08T00:47:02.494Z,18.86
2018-07-08T00:47:43.057Z,18.89
2018-07-08T00:48:23.632Z,18.92
2018-07-08T00:49:04.193Z,18.98
2018-07-08T00:49:44.761Z,18.99
2018-07-08T00:50:25.337Z,18.9
2018-07-08T00:51:05.915Z,18.81
2018-07-08T00:51:46.489Z,18.89
2018-07-08T00:52:27.062Z,18.88
2018-07-08T00:53:07.650Z,18.89
2018-07-08T00:53:48.191Z,18.84
2018-07-08T00:54:28.755Z,18.9
2018-07-08T00:55:09.315Z,18.88
2018-07-08T00:55:49.860Z,18.8
2018-07-08T00:56:30.407Z,18.77
2018-07-08T00:57:10.968Z,18.8
2018-07-08T00:57:51.547Z,18.8
2018-07-08T00:58:32.108Z,18.78
2018-07-08T00:59:12.676Z,18.88
2018-07-08T00:59:53.248Z,18.8
2018-07-08T01:00:33.807Z,18.8
2018-07-08T01:01:14.381Z,18.84
2018-07-08T01:01:54.952Z,18.75
2018-07-08T01:02:35.512Z,18.83
2018-07-08T01:03:16.077Z,18.75
2018-07-08T01:03:56.666Z,18.78
2018-07-08T01:04:37.232Z,18.77
2018-07-08T01:05:17.802Z,18.8
2018-07-08T01:05:58.375Z,18.75
2018-07-08T01:06:38.988Z,18.8
2018-07-08T01:07:19.531Z,18.77
2018-07-08T01:08:00.089Z,18.78
2018-07-08T01:08:40.705Z,18.71
2018-07-08T01:09:21.211Z,18.77
2018-07-08T01:10:01.764Z,18.75
2018-07-08T01:10:42.333Z,18.8
2018-07-08T01:11:22.910Z,18.68
2018-07-08T01:12:03.467Z,18.77
2018-07-08T01:12:44.051Z,18.78
2018-07-08T01:13:24.614Z,18.73
2018-07-08T01:14:05.173Z,18.74
2018-07-08T01:14:45.746Z,18.77
2018-07-08T01:15:26.294Z,18.73
2018-07-08T01:16:06.867Z,18.75
2018-07-08T01:16:47.427Z,18.75
2018-07-08T01:17:27.986Z,18.73
2018-07-08T01:18:08.547Z,18.73
2018-07-08T01:18:49.121Z,18.73
2018-07-08T01:19:29.688Z,18.71
2018-07-08T01:20:10.255Z,18.73
2018-07-08T01:20:50.822Z,18.7
2018-07-08T01:21:31.392Z,18.75
2018-07-08T01:22:11.950Z,18.74
2018-07-08T01:22:52.515Z,18.73
2018-07-08T01:23:33.079Z,18.66
2018-07-08T01:24:13.686Z,18.71
2018-07-08T01:24:54.234Z,18.66
2018-07-08T01:25:34.806Z,18.7
2018-07-08T01:26:15.357Z,18.65
2018-07-08T01:26:55.900Z,18.6
2018-07-08T01:27:36.448Z,18.6
2018-07-08T01:28:17.000Z,18.63
2018-07-08T01:28:57.557Z,18.66
2018-07-08T01:29:38.119Z,18.62
2018-07-08T01:30:18.684Z,18.58
2018-07-08T01:30:59.242Z,18.62
2018-07-08T01:31:39.812Z,18.6
2018-07-08T01:32:20.363Z,18.52
2018-07-08T01:33:00.934Z,18.55
2018-07-08T01:33:41.499Z,18.55
2018-07-08T01:34:22.075Z,18.53
2018-07-08T01:35:02.644Z,18.58
2018-07-08T01:35:43.261Z,18.47
2018-07-08T01:36:23.808Z,18.59
2018-07-08T01:37:04.361Z,18.52
2018-07-08T01:37:44.917Z,18.55
2018-07-08T01:38:25.467Z,18.58
2018-07-08T01:39:06.015Z,18.58
2018-07-08T01:39:46.550Z,18.58
2018-07-08T01:40:27.120Z,18.52
2018-07-08T01:41:07.679Z,18.55
2018-07-08T01:41:48.261Z,18.58
2018-07-08T01:42:28.842Z,18.56
2018-07-08T01:43:09.403Z,18.53
2018-07-08T01:43:49.963Z,18.53
2018-07-08T01:44:30.529Z,18.53
2018-07-08T01:45:11.121Z,18.52
2018-07-08T01:45:51.686Z,18.53
2018-07-08T01:46:32.257Z,18.55
2018-07-08T01:47:12.825Z,18.55
2018-07-08T01:47:53.376Z,18.43
2018-07-08T01:48:33.920Z,18.47
2018-07-08T01:49:14.467Z,18.44
2018-07-08T01:49:55.027Z,18.35
2018-07-08T01:50:35.586Z,18.47
2018-07-08T01:51:16.158Z,18.44
2018-07-08T01:51:56.727Z,18.41
2018-07-08T01:52:37.308Z,18.45
2018-07-08T01:53:17.868Z,18.43
2018-07-08T01:53:58.412Z,18.43
2018-07-08T01:54:39.094Z,18.44
2018-07-08T01:55:19.662Z,18.41
2018-07-08T01:56:00.240Z,18.41
2018-07-08T01:56:40.802Z,18.43
2018-07-08T01:57:21.368Z,18.45
2018-07-08T01:58:01.918Z,18.41
2018-07-08T01:58:42.475Z,18.41
2018-07-08T01:59:23.034Z,18.45
2018-07-08T02:00:03.572Z,18.41
2018-07-08T02:00:44.134Z,18.33
2018-07-08T02:01:24.704Z,18.45
2018-07-08T02:02:05.269Z,18.4
2018-07-08T02:02:45.819Z,18.33
2018-07-08T02:03:26.379Z,18.45
2018-07-08T02:04:06.933Z,18.45
2018-07-08T02:04:47.501Z,18.31
2018-07-08T02:05:28.060Z,18.41
2018-07-08T02:06:08.634Z,18.41
2018-07-08T02:06:49.197Z,18.4
2018-07-08T02:07:29.785Z,18.43
2018-07-08T02:08:10.361Z,18.44
2018-07-08T02:08:50.935Z,18.45
2018-07-08T02:09:31.492Z,18.43
2018-07-08T02:10:12.058Z,18.45
2018-07-08T02:10:52.630Z,18.41
2018-07-08T02:11:33.190Z,18.35
2018-07-08T02:12:13.787Z,18.44
2018-07-08T02:12:54.345Z,18.33
2018-07-08T02:13:34.916Z,18.44
2018-07-08T02:14:15.486Z,18.33
2018-07-08T02:14:56.045Z,18.34
2018-07-08T02:15:36.615Z,18.35
2018-07-08T02:16:17.198Z,18.33
2018-07-08T02:16:57.763Z,18.33
2018-07-08T02:17:38.435Z,18.31
2018-07-08T02:18:19.250Z,18.47
2018-07-08T02:18:59.829Z,18.33
2018-07-08T02:19:40.607Z,18.35
2018-07-08T02:20:21.176Z,18.34
2018-07-08T02:21:01.748Z,18.33
2018-07-08T02:21:42.323Z,18.34
2018-07-08T02:22:22.895Z,18.29
2018-07-08T02:23:03.444Z,18.35
2018-07-08T02:23:44.118Z,18.35
2018-07-08T02:24:24.677Z,18.26
2018-07-08T02:25:05.249Z,18.34
2018-07-08T02:25:45.824Z,18.25
2018-07-08T02:26:26.406Z,18.33
2018-07-08T02:27:06.994Z,18.33
2018-07-08T02:27:47.557Z,18.29
2018-07-08T02:28:28.133Z,18.33
2018-07-08T02:29:08.693Z,18.35
2018-07-08T02:29:49.261Z,18.33
2018-07-08T02:30:29.829Z,18.31
2018-07-08T02:31:10.390Z,18.29
2018-07-08T02:31:50.956Z,18.31
2018-07-08T02:32:31.524Z,18.23
2018-07-08T02:33:12.077Z,18.25
2018-07-08T02:33:52.648Z,18.31
2018-07-08T02:34:33.198Z,18.35
2018-07-08T02:35:13.796Z,18.29
2018-07-08T02:35:54.371Z,18.29
2018-07-08T02:36:34.930Z,18.35
2018-07-08T02:37:15.536Z,18.34
2018-07-08T02:37:56.110Z,18.29
2018-07-08T02:38:36.682Z,18.35
2018-07-08T02:39:17.239Z,18.31
2018-07-08T02:39:57.806Z,18.34
2018-07-08T02:40:38.371Z,18.35
2018-07-08T02:41:18.939Z,18.23
2018-07-08T02:41:59.529Z,18.26
2018-07-08T02:42:40.124Z,18.22
2018-07-08T02:43:20.683Z,18.25
2018-07-08T02:44:01.261Z,18.35
2018-07-08T02:44:41.837Z,18.28
2018-07-08T02:45:22.420Z,18.22
2018-07-08T02:46:02.985Z,18.23
2018-07-08T02:46:43.554Z,18.26
2018-07-08T02:47:24.127Z,18.28
2018-07-08T02:48:04.678Z,18.33
2018-07-08T02:48:45.265Z,18.29
2018-07-08T02:49:25.864Z,18.26
2018-07-08T02:50:06.471Z,18.22
2018-07-08T02:50:47.057Z,18.29
2018-07-08T02:51:27.712Z,18.31
2018-07-08T02:52:08.274Z,18.26
2018-07-08T02:52:48.835Z,18.28
2018-07-08T02:53:29.391Z,18.22
2018-07-08T02:54:10.008Z,18.33
2018-07-08T02:54:50.581Z,18.26
2018-07-08T02:55:31.145Z,18.29
2018-07-08T02:56:11.756Z,18.37
2018-07-08T02:56:52.378Z,18.25
2018-07-08T02:57:32.967Z,18.35
2018-07-08T02:58:13.534Z,18.25
2018-07-08T02:58:54.434Z,18.2
2018-07-08T02:59:35.055Z,18.37
2018-07-08T03:00:15.684Z,18.2
2018-07-08T03:00:56.392Z,18.23
2018-07-08T03:01:36.950Z,18.25
2018-07-08T03:02:17.514Z,18.26
2018-07-08T03:02:58.071Z,18.25
2018-07-08T03:03:38.630Z,18.23
2018-07-08T03:04:19.206Z,18.35
2018-07-08T03:04:59.759Z,18.26
2018-07-08T03:05:40.350Z,18.25
2018-07-08T03:06:20.916Z,18.29
2018-07-08T03:07:01.467Z,18.25
2018-07-08T03:07:42.037Z,18.18
2018-07-08T03:08:22.590Z,18.35
2018-07-08T03:09:03.144Z,18.29
2018-07-08T03:09:43.727Z,18.28
2018-07-08T03:10:24.294Z,18.23
2018-07-08T03:11:04.864Z,18.28
2018-07-08T03:11:45.420Z,18.25
2018-07-08T03:12:26.021Z,18.28
2018-07-08T03:13:06.525Z,18.2
2018-07-08T03:13:47.094Z,18.22
2018-07-08T03:14:27.641Z,18.25
2018-07-08T03:15:08.203Z,18.25
2018-07-08T03:15:48.790Z,18.26
2018-07-08T03:16:29.362Z,18.22
2018-07-08T03:17:09.937Z,18.15
2018-07-08T03:17:50.499Z,18.1
2018-07-08T03:18:31.052Z,18.15
2018-07-08T03:19:11.640Z,18.15
2018-07-08T03:19:52.217Z,18.18
2018-07-08T03:20:32.791Z,18.19
2018-07-08T03:21:13.346Z,18.13
2018-07-08T03:21:53.901Z,18.19
2018-07-08T03:22:34.484Z,18.13
2018-07-08T03:23:15.061Z,18.18
2018-07-08T03:23:55.637Z,18.2
2018-07-08T03:24:36.206Z,18.15
2018-07-08T03:25:16.772Z,18.18
2018-07-08T03:25:57.331Z,18.08
2018-07-08T03:26:37.908Z,18.19
2018-07-08T03:27:18.466Z,18.16
2018-07-08T03:27:59.046Z,18.2
2018-07-08T03:28:39.604Z,18.23
2018-07-08T03:29:20.155Z,18.19
2018-07-08T03:30:00.716Z,18.1
2018-07-08T03:30:41.301Z,18.2
2018-07-08T03:31:21.862Z,18.15
2018-07-08T03:32:02.431Z,18.18
2018-07-08T03:32:42.997Z,18.19
2018-07-08T03:33:23.572Z,18.16
2018-07-08T03:34:04.137Z,18.16
2018-07-08T03:34:44.698Z,18.2
2018-07-08T03:35:25.267Z,18.16
2018-07-08T03:36:05.833Z,18.2
2018-07-08T03:36:46.403Z,18.08
2018-07-08T03:37:26.968Z,18.15
2018-07-08T03:38:07.528Z,18.15
2018-07-08T03:38:48.089Z,18.1
2018-07-08T03:39:28.631Z,18.13
2018-07-08T03:40:09.214Z,18.08
2018-07-08T03:40:49.775Z,18.19
2018-07-08T03:41:30.372Z,18.13
2018-07-08T03:42:10.930Z,18.08
2018-07-08T03:42:51.492Z,18.13
2018-07-08T03:43:32.052Z,18.08
2018-07-08T03:44:12.610Z,18.08
2018-07-08T03:44:53.194Z,18.1
2018-07-08T03:45:33.764Z,18.1
2018-07-08T03:46:14.335Z,18.1
2018-07-08T03:46:54.903Z,18.18
2018-07-08T03:47:35.468Z,18.13
2018-07-08T03:48:16.035Z,18.08
2018-07-08T03:48:56.609Z,18.11
2018-07-08T03:49:37.180Z,18.11
2018-07-08T03:50:17.739Z,18.11
2018-07-08T03:50:58.300Z,18.18
2018-07-08T03:51:38.860Z,18.15
2018-07-08T03:52:19.416Z,18.18
2018-07-08T03:53:00.007Z,18.13
2018-07-08T03:53:40.575Z,18.18
2018-07-08T03:54:21.132Z,18.18
2018-07-08T03:55:01.698Z,18.15
2018-07-08T03:55:42.270Z,18.13
2018-07-08T03:56:22.831Z,18.1
2018-07-08T03:57:03.474Z,18.18
2018-07-08T03:57:44.020Z,18.13
2018-07-08T03:58:24.616Z,18.19
2018-07-08T03:59:05.149Z,18.18
2018-07-08T03:59:45.722Z,18.19
2018-07-08T04:00:26.286Z,18.2
2018-07-08T04:01:06.854Z,18.18
2018-07-08T04:01:47.465Z,18.23
2018-07-08T04:02:28.030Z,18.25
2018-07-08T04:03:08.588Z,18.15
2018-07-08T04:03:49.162Z,18.13
2018-07-08T04:04:29.716Z,18.2
2018-07-08T04:05:10.274Z,18.22
2018-07-08T04:05:50.863Z,18.16
2018-07-08T04:06:31.438Z,18.19
2018-07-08T04:07:12.010Z,18.19
2018-07-08T04:07:52.573Z,18.13
2018-07-08T04:08:33.150Z,18.18
2018-07-08T04:09:13.701Z,18.18
2018-07-08T04:09:54.273Z,18.2
2018-07-08T04:10:34.855Z,18.28
2018-07-08T04:11:15.426Z,18.28
2018-07-08T04:11:55.996Z,18.25
2018-07-08T04:12:36.579Z,18.25
2018-07-08T04:13:17.142Z,18.18
2018-07-08T04:13:57.711Z,18.28
2018-07-08T04:14:38.280Z,18.22
2018-07-08T04:15:18.906Z,18.23
2018-07-08T04:15:59.411Z,18.23
2018-07-08T04:16:39.974Z,18.25
2018-07-08T04:17:20.554Z,18.23
2018-07-08T04:18:01.132Z,18.26
2018-07-08T04:18:41.685Z,18.31
2018-07-08T04:19:22.257Z,18.33
2018-07-08T04:20:02.831Z,18.26
2018-07-08T04:20:43.393Z,18.25
2018-07-08T04:21:23.963Z,18.34
2018-07-08T04:22:04.546Z,18.34
2018-07-08T04:22:45.108Z,18.31
2018-07-08T04:23:25.672Z,18.29
2018-07-08T04:24:06.220Z,18.33
2018-07-08T04:24:46.788Z,18.34
2018-07-08T04:25:27.360Z,18.34
2018-07-08T04:26:07.927Z,18.37
2018-07-08T04:26:48.498Z,18.37
2018-07-08T04:27:29.064Z,18.33
2018-07-08T04:28:09.623Z,18.37
2018-07-08T04:28:50.180Z,18.33
2018-07-08T04:29:30.739Z,18.35
2018-07-08T04:30:11.308Z,18.41
2018-07-08T04:30:51.883Z,18.38
2018-07-08T04:31:32.436Z,18.41
2018-07-08T04:32:12.992Z,18.43
2018-07-08T04:32:53.559Z,18.38
2018-07-08T04:33:34.142Z,18.45
2018-07-08T04:34:14.687Z,18.44
2018-07-08T04:34:55.233Z,18.29
2018-07-08T04:35:35.801Z,18.44
2018-07-08T04:36:16.366Z,18.34
2018-07-08T04:36:56.940Z,18.37
2018-07-08T04:37:37.493Z,18.34
2018-07-08T04:38:18.061Z,18.44
2018-07-08T04:38:58.632Z,18.34
2018-07-08T04:39:39.203Z,18.34
2018-07-08T04:40:19.775Z,18.33
2018-07-08T04:41:00.888Z,18.33
2018-07-08T04:41:41.441Z,18.22
2018-07-08T04:42:22.006Z,18.15
2018-07-08T04:43:02.572Z,18.26
2018-07-08T04:43:43.139Z,18.28
2018-07-08T04:44:23.710Z,18.23
2018-07-08T04:45:04.280Z,18.25
2018-07-08T04:45:44.839Z,18.25
2018-07-08T04:46:25.399Z,18.25
2018-07-08T04:47:05.961Z,18.29
2018-07-08T04:47:46.544Z,18.26
2018-07-08T04:48:27.100Z,18.2
2018-07-08T04:49:07.725Z,18.26
2018-07-08T04:49:48.265Z,18.29
2018-07-08T04:50:28.847Z,18.26
2018-07-08T04:51:09.410Z,18.28
2018-07-08T04:51:49.985Z,18.26
2018-07-08T04:52:30.593Z,18.38
2018-07-08T04:53:11.153Z,18.26
2018-07-08T04:53:51.713Z,18.23
2018-07-08T04:54:32.278Z,18.34
2018-07-08T04:55:12.832Z,18.25
2018-07-08T04:55:53.400Z,18.38
2018-07-08T04:56:33.960Z,18.29
2018-07-08T04:57:14.505Z,18.38
2018-07-08T04:57:55.078Z,18.34
2018-07-08T04:58:35.636Z,18.44
2018-07-08T04:59:16.202Z,18.4
2018-07-08T04:59:56.762Z,18.37
2018-07-08T05:00:37.333Z,18.45
2018-07-08T05:01:17.895Z,18.45
2018-07-08T05:01:58.457Z,18.37
2018-07-08T05:02:39.022Z,18.41
2018-07-08T05:03:19.567Z,18.43
2018-07-08T05:04:00.122Z,18.44
2018-07-08T05:04:40.677Z,18.45
2018-07-08T05:05:21.241Z,18.41
2018-07-08T05:06:01.809Z,18.47
2018-07-08T05:06:42.371Z,18.44
2018-07-08T05:07:22.948Z,18.34
2018-07-08T05:08:03.517Z,18.41
2018-07-08T05:08:44.079Z,18.37
2018-07-08T05:09:24.644Z,18.37
2018-07-08T05:10:05.229Z,18.41
2018-07-08T05:10:45.818Z,18.44
2018-07-08T05:11:26.384Z,18.38
2018-07-08T05:12:06.947Z,18.41
2018-07-08T05:12:47.515Z,18.41
2018-07-08T05:13:28.120Z,18.47
2018-07-08T05:14:08.660Z,18.37
2018-07-08T05:14:49.216Z,18.4
2018-07-08T05:15:29.778Z,18.29
2018-07-08T05:16:10.334Z,18.43
2018-07-08T05:16:50.900Z,18.49
2018-07-08T05:17:31.477Z,18.45
2018-07-08T05:18:12.031Z,18.41
2018-07-08T05:18:52.589Z,18.34
2018-07-08T05:19:33.152Z,18.44
2018-07-08T05:20:13.719Z,18.38
2018-07-08T05:20:54.273Z,18.26
2018-07-08T05:21:34.841Z,18.26
2018-07-08T05:22:15.430Z,18.29
2018-07-08T05:22:55.971Z,18.28
2018-07-08T05:23:36.546Z,18.29
2018-07-08T05:24:17.095Z,18.23
2018-07-08T05:24:57.668Z,18.23
2018-07-08T05:25:38.220Z,18.28
2018-07-08T05:26:18.770Z,18.34
2018-07-08T05:26:59.343Z,18.25
2018-07-08T05:27:39.902Z,18.26
2018-07-08T05:28:20.465Z,18.33
2018-07-08T05:29:01.042Z,18.29
2018-07-08T05:29:41.611Z,18.43
2018-07-08T05:30:22.179Z,18.47
2018-07-08T05:31:02.752Z,18.44
2018-07-08T05:31:43.304Z,18.35
2018-07-08T05:32:23.851Z,18.41
2018-07-08T05:33:04.422Z,18.43
2018-07-08T05:33:44.969Z,18.45
2018-07-08T05:34:25.542Z,18.35
2018-07-08T05:35:06.127Z,18.43
2018-07-08T05:35:46.796Z,18.5
2018-07-08T05:36:27.253Z,18.47
2018-07-08T05:37:07.869Z,18.38
2018-07-08T05:37:48.450Z,18.45
2018-07-08T05:38:28.991Z,18.5
2018-07-08T05:39:09.554Z,18.44
2018-07-08T05:39:50.117Z,18.5
2018-07-08T05:40:30.672Z,18.55
2018-07-08T05:41:11.251Z,18.5
2018-07-08T05:41:51.821Z,18.55
2018-07-08T05:42:32.392Z,18.5
2018-07-08T05:43:12.957Z,18.58
2018-07-08T05:43:53.516Z,18.58
2018-07-08T05:44:34.066Z,18.56
2018-07-08T05:45:14.621Z,18.62
2018-07-08T05:45:55.204Z,18.7
2018-07-08T05:46:35.808Z,18.68
2018-07-08T05:47:16.373Z,18.74
2018-07-08T05:47:56.931Z,18.7
2018-07-08T05:48:37.503Z,18.7
2018-07-08T05:49:18.066Z,18.73
2018-07-08T05:49:58.631Z,18.74
2018-07-08T05:50:39.239Z,18.73
2018-07-08T05:51:19.746Z,18.78
2018-07-08T05:52:00.316Z,18.75
2018-07-08T05:52:40.871Z,18.77
2018-07-08T05:53:21.422Z,18.73
2018-07-08T05:54:01.988Z,18.66
2018-07-08T05:54:42.568Z,18.62
2018-07-08T05:55:23.141Z,18.62
2018-07-08T05:56:03.698Z,18.62
2018-07-08T05:56:44.255Z,18.59
2018-07-08T05:57:24.819Z,18.58
2018-07-08T05:58:05.362Z,18.6
2018-07-08T05:58:45.925Z,18.56
2018-07-08T05:59:26.491Z,18.52
2018-07-08T06:00:07.049Z,18.58
2018-07-08T06:00:47.617Z,18.59
2018-07-08T06:01:28.201Z,18.56
2018-07-08T06:02:08.775Z,18.5
2018-07-08T06:02:49.347Z,18.56
2018-07-08T06:03:29.885Z,18.5
2018-07-08T06:04:10.456Z,18.47
2018-07-08T06:04:51.001Z,18.53
2018-07-08T06:05:31.598Z,18.5
2018-07-08T06:06:12.153Z,18.47
2018-07-08T06:06:52.734Z,18.45
2018-07-08T06:07:33.312Z,18.47
2018-07-08T06:08:13.870Z,18.38
2018-07-08T06:08:54.447Z,18.53
2018-07-08T06:09:35.004Z,18.43
2018-07-08T06:10:15.565Z,18.47
2018-07-08T06:10:56.141Z,18.43
2018-07-08T06:11:36.712Z,18.44
2018-07-08T06:12:17.279Z,18.41
2018-07-08T06:12:57.839Z,18.41
2018-07-08T06:13:38.405Z,18.43
2018-07-08T06:14:18.987Z,18.49
2018-07-08T06:14:59.539Z,18.47
2018-07-08T06:15:40.099Z,18.4
2018-07-08T06:16:20.666Z,18.44
2018-07-08T06:17:01.220Z,18.49
2018-07-08T06:17:41.796Z,18.53
2018-07-08T06:18:22.350Z,18.53
2018-07-08T06:19:02.922Z,18.55
2018-07-08T06:19:43.486Z,18.58
2018-07-08T06:20:24.056Z,18.59
2018-07-08T06:21:04.599Z,18.58
2018-07-08T06:21:45.162Z,18.65
2018-07-08T06:22:25.778Z,18.65
2018-07-08T06:23:06.361Z,18.66
2018-07-08T06:23:46.928Z,18.66
2018-07-08T06:24:27.486Z,18.66
2018-07-08T06:25:08.039Z,18.66
2018-07-08T06:25:48.605Z,18.66
2018-07-08T06:26:29.172Z,18.65
2018-07-08T06:27:09.735Z,18.66
2018-07-08T06:27:50.339Z,18.59
2018-07-08T06:28:30.858Z,18.66
2018-07-08T06:29:11.423Z,18.55
2018-07-08T06:29:51.980Z,18.6
2018-07-08T06:30:32.569Z,18.6
2018-07-08T06:31:13.141Z,18.56
2018-07-08T06:31:53.702Z,18.49
2018-07-08T06:32:35.389Z,18.62
2018-07-08T06:33:15.980Z,18.66
2018-07-08T06:33:56.546Z,18.5
2018-07-08T06:34:37.118Z,18.47
2018-07-08T06:35:17.719Z,18.49
2018-07-08T06:35:58.270Z,18.5
2018-07-08T06:36:38.871Z,18.49
2018-07-08T06:37:19.440Z,18.47
2018-07-08T06:38:00.037Z,18.52
2018-07-08T06:38:40.631Z,18.49
2018-07-08T06:39:21.180Z,18.52
2018-07-08T06:40:01.755Z,18.44
2018-07-08T06:40:42.317Z,18.47
2018-07-08T06:41:22.864Z,18.5
2018-07-08T06:42:03.434Z,18.52
2018-07-08T06:42:44.005Z,18.55
2018-07-08T06:43:24.553Z,18.5
2018-07-08T06:44:05.130Z,18.56
2018-07-08T06:44:45.685Z,18.58
2018-07-08T06:45:26.262Z,18.56
2018-07-08T06:46:06.822Z,18.59
2018-07-08T06:46:47.427Z,18.63
2018-07-08T06:47:28.009Z,18.56
2018-07-08T06:48:08.696Z,18.58
2018-07-08T06:48:49.247Z,18.59
2018-07-08T06:49:29.796Z,18.55
2018-07-08T06:50:10.351Z,18.59
2018-07-08T06:50:50.921Z,18.63
2018-07-08T06:51:31.480Z,18.56
2018-07-08T06:52:12.223Z,18.56
2018-07-08T06:52:52.802Z,18.6
2018-07-08T06:53:33.408Z,18.59
2018-07-08T06:54:13.974Z,18.58
2018-07-08T06:54:54.518Z,18.58
2018-07-08T06:55:35.091Z,18.65
2018-07-08T06:56:15.687Z,18.66
2018-07-08T06:56:56.254Z,18.65
2018-07-08T06:57:36.873Z,18.65
2018-07-08T06:58:17.418Z,18.73
2018-07-08T06:58:57.984Z,18.73
2018-07-08T06:59:38.646Z,18.75
2018-07-08T07:00:19.174Z,18.71
2018-07-08T07:00:59.756Z,18.74
2018-07-08T07:01:40.295Z,18.73
2018-07-08T07:02:20.866Z,18.8
2018-07-08T07:03:01.419Z,18.75
2018-07-08T07:03:42.119Z,18.75
2018-07-08T07:04:22.741Z,18.71
2018-07-08T07:05:03.332Z,18.75
2018-07-08T07:05:43.897Z,18.74
2018-07-08T07:06:24.498Z,18.78
2018-07-08T07:07:05.200Z,18.81
2018-07-08T07:07:45.834Z,18.81
2018-07-08T07:08:26.394Z,18.84
2018-07-08T07:09:06.958Z,18.86
2018-07-08T07:09:47.515Z,18.8
2018-07-08T07:10:28.069Z,18.84
2018-07-08T07:11:08.663Z,18.77
2018-07-08T07:11:49.223Z,18.75
2018-07-08T07:12:29.861Z,18.75
2018-07-08T07:13:10.476Z,18.78
2018-07-08T07:13:51.033Z,18.78
2018-07-08T07:14:31.623Z,18.81
2018-07-08T07:15:12.195Z,18.78
2018-07-08T07:15:52.765Z,18.77
2018-07-08T07:16:33.352Z,18.81
2018-07-08T07:17:13.879Z,18.93
2018-07-08T07:17:54.443Z,18.83
2018-07-08T07:18:35.015Z,18.83
2018-07-08T07:19:15.561Z,18.86
2018-07-08T07:19:56.112Z,18.84
2018-07-08T07:20:36.690Z,18.84
2018-07-08T07:21:17.250Z,18.88
2018-07-08T07:21:57.842Z,18.93
2018-07-08T07:22:38.446Z,18.92
2018-07-08T07:23:19.018Z,18.95
2018-07-08T07:23:59.613Z,18.92
2018-07-08T07:24:40.207Z,19.02
2018-07-08T07:25:20.718Z,18.93
2018-07-08T07:26:01.269Z,18.96
2018-07-08T07:26:41.827Z,19.09
2018-07-08T07:27:22.384Z,19
2018-07-08T07:28:02.944Z,18.99
2018-07-08T07:28:43.515Z,19.08
2018-07-08T07:29:24.125Z,18.96
2018-07-08T07:30:04.667Z,19.09
2018-07-08T07:30:45.223Z,19.14
2018-07-08T07:31:25.802Z,19
2018-07-08T07:32:06.367Z,19.07
2018-07-08T07:32:47.044Z,19.16
2018-07-08T07:33:27.594Z,19.12
2018-07-08T07:34:08.162Z,19.16
2018-07-08T07:34:48.712Z,19.27
2018-07-08T07:35:29.284Z,19.16
2018-07-08T07:36:09.857Z,19.3
2018-07-08T07:36:50.431Z,19.31
2018-07-08T07:37:30.989Z,19.34
2018-07-08T07:38:11.568Z,19.3
2018-07-08T07:38:52.122Z,19.41
2018-07-08T07:39:32.690Z,19.48
2018-07-08T07:40:13.274Z,19.44
2018-07-08T07:40:53.849Z,19.55
2018-07-08T07:41:34.432Z,19.47
2018-07-08T07:42:15.016Z,19.56
2018-07-08T07:42:55.584Z,19.49
2018-07-08T07:43:36.146Z,19.59
2018-07-08T07:44:16.721Z,19.56
2018-07-08T07:44:57.279Z,19.59
2018-07-08T07:45:37.842Z,19.63
2018-07-08T07:46:18.396Z,19.64
2018-07-08T07:46:58.967Z,19.67
2018-07-08T07:47:39.553Z,19.7
2018-07-08T07:48:20.127Z,19.85
2018-07-08T07:49:00.688Z,19.91
2018-07-08T07:49:41.317Z,19.95
2018-07-08T07:50:21.865Z,20.04
2018-07-08T07:51:02.432Z,19.91
2018-07-08T07:51:43.013Z,19.94
2018-07-08T07:52:23.699Z,20.03
2018-07-08T07:53:04.264Z,20.07
2018-07-08T07:53:44.837Z,20.1
2018-07-08T07:54:25.409Z,20.18
2018-07-08T07:55:06.022Z,20.13
2018-07-08T07:55:46.605Z,20.18
2018-07-08T07:56:27.151Z,20.18
2018-07-08T07:57:07.728Z,20.13
2018-07-08T07:57:48.298Z,20.25
2018-07-08T07:58:28.879Z,20.22
2018-07-08T07:59:09.443Z,20.16
2018-07-08T07:59:50.014Z,20.22
2018-07-08T08:00:30.594Z,20.18
2018-07-08T08:01:11.149Z,20.1
2018-07-08T08:01:51.716Z,20.1
2018-07-08T08:02:32.268Z,20.13
2018-07-08T08:03:12.825Z,20.25
2018-07-08T08:03:53.405Z,20.13
2018-07-08T08:04:33.966Z,20.14
2018-07-08T08:05:14.527Z,20.09
2018-07-08T08:05:55.102Z,20.09
2018-07-08T08:06:35.673Z,20.09
2018-07-08T08:07:16.247Z,20.09
2018-07-08T08:07:56.830Z,20.13
2018-07-08T08:08:37.524Z,20.07
2018-07-08T08:09:17.991Z,20.09
2018-07-08T08:09:58.558Z,20.07
2018-07-08T08:10:39.142Z,20.04
2018-07-08T08:11:19.691Z,20.11
2018-07-08T08:12:00.279Z,20.03
2018-07-08T08:12:40.842Z,20
2018-07-08T08:13:21.409Z,19.96
2018-07-08T08:14:01.993Z,19.92
2018-07-08T08:14:42.541Z,19.92
2018-07-08T08:15:23.134Z,19.94
2018-07-08T08:16:03.707Z,19.89
2018-07-08T08:16:44.289Z,19.88
2018-07-08T08:17:24.846Z,20
2018-07-08T08:18:05.421Z,19.99
2018-07-08T08:18:45.970Z,19.92
2018-07-08T08:19:26.538Z,20
2018-07-08T08:20:07.098Z,19.91
2018-07-08T08:20:47.660Z,19.94
2018-07-08T08:21:28.215Z,19.89
2018-07-08T08:22:08.791Z,19.95
2018-07-08T08:22:49.364Z,19.88
2018-07-08T08:23:29.936Z,20.06
2018-07-08T08:24:10.500Z,19.94
2018-07-08T08:24:51.079Z,19.99
2018-07-08T08:25:31.644Z,19.96
2018-07-08T08:26:12.188Z,19.95
2018-07-08T08:26:52.821Z,19.96
2018-07-08T08:27:33.369Z,20.07
2018-07-08T08:28:13.945Z,19.92
2018-07-08T08:28:54.495Z,20.03
2018-07-08T08:29:35.052Z,19.91
2018-07-08T08:30:15.660Z,19.94
2018-07-08T08:30:56.208Z,19.99
2018-07-08T08:31:36.792Z,19.95
2018-07-08T08:32:17.402Z,20.03
2018-07-08T08:32:57.967Z,20.03
2018-07-08T08:33:38.513Z,20.04
2018-07-08T08:34:19.104Z,20.04
2018-07-08T08:34:59.671Z,19.96
2018-07-08T08:35:40.245Z,19.91
2018-07-08T08:36:20.829Z,19.88
2018-07-08T08:37:01.402Z,20
2018-07-08T08:37:41.967Z,19.96
2018-07-08T08:38:22.544Z,19.91
2018-07-08T08:39:03.116Z,20
2018-07-08T08:39:43.670Z,19.95
2018-07-08T08:40:24.225Z,20.09
2018-07-08T08:41:04.832Z,20.16
2018-07-08T08:41:45.386Z,20.19
2018-07-08T08:42:25.956Z,20.14
2018-07-08T08:43:06.508Z,20.25
2018-07-08T08:43:47.066Z,20.26
2018-07-08T08:44:27.642Z,20.32